sensor_id;sensor_type;location;lat;lon;timestamp;P1;durP1;ratioP1;P2;durP2;ratioP2
6499;SDS011;3283;52.330;9.772;2023-11-22T05:03:36;491.13;;;104.23;;
6499;SDS011;3283;52.330;9.772;2023-11-22T05:06:02;486.30;;;95.27;;
6499;SDS011;3283;52.330;9.772;2023-11-22T05:08:28;497.27;;;102.90;;
6499;SDS011;3283;52.330;9.772;2023-11-22T05:10:55;494.47;;;97.97;;
6499;SDS011;3283;52.330;9.772;2023-11-22T05:13:20;491.80;;;99.47;;
6499;SDS011;3283;52.330;9.772;2023-11-22T05:15:46;503.20;;;103.50;;
6499;SDS011;3283;52.330;9.772;2023-11-22T05:18:12;501.50;;;101.77;;
6499;SDS011;3283;52.330;9.772;2023-11-22T05:20:37;510.30;;;105.97;;
6499;SDS011;3283;52.330;9.772;2023-11-22T05:23:02;503.70;;;101.90;;
6499;SDS011;3283;52.330;9.772;2023-11-22T05:25:31;506.07;;;104.87;;
6499;SDS011;3283;52.330;9.772;2023-11-22T05:27:56;504.93;;;101.93;;
6499;SDS011;3283;52.330;9.772;2023-11-22T05:30:21;512.70;;;110.53;;
6499;SDS011;3283;52.330;9.772;2023-11-22T05:32:48;514.67;;;112.90;;
6499;SDS011;3283;52.330;9.772;2023-11-22T05:35:14;506.23;;;107.17;;
6499;SDS011;3283;52.330;9.772;2023-11-22T05:37:40;510.57;;;107.97;;
6499;SDS011;3283;52.330;9.772;2023-11-22T05:40:06;510.47;;;104.67;;
6499;SDS011;3283;52.330;9.772;2023-11-22T05:42:34;514.03;;;106.90;;
6499;SDS011;3283;52.330;9.772;2023-11-22T05:45:00;507.20;;;105.30;;
6499;SDS011;3283;52.330;9.772;2023-11-22T05:47:26;512.50;;;105.30;;
6499;SDS011;3283;52.330;9.772;2023-11-22T05:49:52;511.83;;;105.53;;
6499;SDS011;3283;52.330;9.772;2023-11-22T05:52:17;517.10;;;111.20;;
6499;SDS011;3283;52.330;9.772;2023-11-22T05:54:43;507.27;;;105.63;;
6499;SDS011;3283;52.330;9.772;2023-11-22T05:57:08;510.30;;;104.73;;
6499;SDS011;3283;52.330;9.772;2023-11-22T05:59:34;510.67;;;103.80;;
6499;SDS011;3283;52.330;9.772;2023-11-22T06:02:00;506.50;;;103.47;;
6499;SDS011;3283;52.330;9.772;2023-11-22T06:04:26;508.07;;;102.37;;
6499;SDS011;3283;52.330;9.772;2023-11-22T06:06:51;504.47;;;103.60;;
6499;SDS011;3283;52.330;9.772;2023-11-22T06:09:17;508.67;;;106.87;;
6499;SDS011;3283;52.330;9.772;2023-11-22T06:11:42;504.93;;;100.23;;
6499;SDS011;3283;52.330;9.772;2023-11-22T06:14:08;505.63;;;100.03;;
6499;SDS011;3283;52.330;9.772;2023-11-22T06:16:33;513.40;;;105.30;;
6499;SDS011;3283;52.330;9.772;2023-11-22T06:18:59;512.87;;;109.03;;
6499;SDS011;3283;52.330;9.772;2023-11-22T06:21:24;512.63;;;105.83;;
6499;SDS011;3283;52.330;9.772;2023-11-22T06:23:52;507.47;;;101.93;;
6499;SDS011;3283;52.330;9.772;2023-11-22T06:26:20;507.47;;;102.77;;
6499;SDS011;3283;52.330;9.772;2023-11-22T06:28:45;514.67;;;109.27;;
6499;SDS011;3283;52.330;9.772;2023-11-22T06:31:13;508.23;;;103.43;;
6499;SDS011;3283;52.330;9.772;2023-11-22T06:33:38;505.47;;;103.90;;
6499;SDS011;3283;52.330;9.772;2023-11-22T06:36:04;499.53;;;96.90;;
6499;SDS011;3283;52.330;9.772;2023-11-22T06:38:30;507.27;;;104.50;;
6499;SDS011;3283;52.330;9.772;2023-11-22T06:40:55;501.77;;;98.13;;
6499;SDS011;3283;52.330;9.772;2023-11-22T06:43:21;515.23;;;106.90;;
6499;SDS011;3283;52.330;9.772;2023-11-22T06:45:46;504.47;;;103.90;;
6499;SDS011;3283;52.330;9.772;2023-11-22T06:48:11;504.97;;;97.93;;
6499;SDS011;3283;52.330;9.772;2023-11-22T06:50:37;505.90;;;98.93;;
6499;SDS011;3283;52.330;9.772;2023-11-22T06:53:02;499.93;;;97.97;;
6499;SDS011;3283;52.330;9.772;2023-11-22T06:55:28;505.20;;;98.53;;
6499;SDS011;3283;52.330;9.772;2023-11-22T06:57:54;500.37;;;96.87;;
6499;SDS011;3283;52.330;9.772;2023-11-22T07:00:19;508.90;;;102.10;;
6499;SDS011;3283;52.330;9.772;2023-11-22T07:02:45;507.80;;;102.90;;
6499;SDS011;3283;52.330;9.772;2023-11-22T07:05:11;507.67;;;102.20;;
6499;SDS011;3283;52.330;9.772;2023-11-22T07:07:36;506.23;;;100.47;;
6499;SDS011;3283;52.330;9.772;2023-11-22T07:10:06;496.97;;;96.27;;
6499;SDS011;3283;52.330;9.772;2023-11-22T07:12:32;501.13;;;99.90;;
6499;SDS011;3283;52.330;9.772;2023-11-22T07:14:59;505.70;;;103.00;;
6499;SDS011;3283;52.330;9.772;2023-11-22T07:17:24;504.10;;;104.50;;
6499;SDS011;3283;52.330;9.772;2023-11-22T07:19:53;501.40;;;102.93;;
6499;SDS011;3283;52.330;9.772;2023-11-22T07:22:19;513.67;;;109.70;;
6499;SDS011;3283;52.330;9.772;2023-11-22T07:24:48;502.33;;;104.03;;
6499;SDS011;3283;52.330;9.772;2023-11-22T07:27:17;513.10;;;108.77;;
6499;SDS011;3283;52.330;9.772;2023-11-22T07:29:44;506.40;;;104.70;;
6499;SDS011;3283;52.330;9.772;2023-11-22T07:32:10;505.33;;;102.93;;
6499;SDS011;3283;52.330;9.772;2023-11-22T07:34:36;511.37;;;108.23;;
6499;SDS011;3283;52.330;9.772;2023-11-22T07:37:04;504.23;;;102.47;;
6499;SDS011;3283;52.330;9.772;2023-11-22T07:39:32;506.57;;;105.67;;
6499;SDS011;3283;52.330;9.772;2023-11-22T07:41:57;520.00;;;111.40;;
6499;SDS011;3283;52.330;9.772;2023-11-22T07:44:23;511.70;;;112.80;;
6499;SDS011;3283;52.330;9.772;2023-11-22T07:46:50;521.67;;;114.50;;
6499;SDS011;3283;52.330;9.772;2023-11-22T07:49:21;518.07;;;112.07;;
6499;SDS011;3283;52.330;9.772;2023-11-22T07:51:47;514.20;;;106.77;;
6499;SDS011;3283;52.330;9.772;2023-11-22T07:54:17;511.27;;;106.87;;
6499;SDS011;3283;52.330;9.772;2023-11-22T07:56:43;511.27;;;104.13;;
6499;SDS011;3283;52.330;9.772;2023-11-22T07:59:13;513.93;;;109.30;;
6499;SDS011;3283;52.330;9.772;2023-11-22T08:01:39;518.50;;;111.50;;
6499;SDS011;3283;52.330;9.772;2023-11-22T08:04:08;511.90;;;109.80;;
6499;SDS011;3283;52.330;9.772;2023-11-22T08:06:34;525.10;;;118.00;;
6499;SDS011;3283;52.330;9.772;2023-11-22T08:09:00;527.77;;;117.80;;
6499;SDS011;3283;52.330;9.772;2023-11-22T08:11:26;520.67;;;114.70;;
6499;SDS011;3283;52.330;9.772;2023-11-22T08:13:55;524.33;;;120.27;;
6499;SDS011;3283;52.330;9.772;2023-11-22T08:16:24;512.80;;;105.50;;
6499;SDS011;3283;52.330;9.772;2023-11-22T08:18:50;516.93;;;112.60;;
6499;SDS011;3283;52.330;9.772;2023-11-22T08:21:16;520.77;;;109.57;;
6499;SDS011;3283;52.330;9.772;2023-11-22T08:23:47;519.27;;;109.93;;
6499;SDS011;3283;52.330;9.772;2023-11-22T08:26:13;521.07;;;110.47;;
6499;SDS011;3283;52.330;9.772;2023-11-22T08:28:40;515.67;;;109.33;;
6499;SDS011;3283;52.330;9.772;2023-11-22T08:31:05;519.77;;;112.37;;
6499;SDS011;3283;52.330;9.772;2023-11-22T08:33:34;532.50;;;123.80;;
6499;SDS011;3283;52.330;9.772;2023-11-22T08:36:00;522.50;;;115.97;;
6499;SDS011;3283;52.330;9.772;2023-11-22T08:38:28;527.97;;;118.73;;
6499;SDS011;3283;52.330;9.772;2023-11-22T08:40:53;521.20;;;114.10;;
6499;SDS011;3283;52.330;9.772;2023-11-22T08:43:20;536.60;;;128.93;;
6499;SDS011;3283;52.330;9.772;2023-11-22T08:45:48;527.70;;;117.13;;
6499;SDS011;3283;52.330;9.772;2023-11-22T08:48:14;525.03;;;112.57;;
6499;SDS011;3283;52.330;9.772;2023-11-22T08:50:40;523.60;;;111.20;;
6499;SDS011;3283;52.330;9.772;2023-11-22T08:53:06;531.37;;;123.37;;
6499;SDS011;3283;52.330;9.772;2023-11-22T08:55:33;525.97;;;120.10;;
6499;SDS011;3283;52.330;9.772;2023-11-22T08:57:59;522.87;;;114.27;;
6499;SDS011;3283;52.330;9.772;2023-11-22T09:00:24;539.93;;;130.63;;
6499;SDS011;3283;52.330;9.772;2023-11-22T09:02:53;530.70;;;124.10;;
6499;SDS011;3283;52.330;9.772;2023-11-22T09:05:20;536.23;;;129.27;;
6499;SDS011;3283;52.330;9.772;2023-11-22T09:07:46;533.37;;;123.97;;
6499;SDS011;3283;52.330;9.772;2023-11-22T09:10:12;524.13;;;115.83;;
6499;SDS011;3283;52.330;9.772;2023-11-22T09:12:39;535.57;;;129.43;;
6499;SDS011;3283;52.330;9.772;2023-11-22T09:15:09;535.47;;;130.23;;
6499;SDS011;3283;52.330;9.772;2023-11-22T09:17:38;526.97;;;118.73;;
6499;SDS011;3283;52.330;9.772;2023-11-22T09:20:17;527.60;;;125.03;;
6499;SDS011;3283;52.330;9.772;2023-11-22T09:22:46;526.10;;;124.80;;
6499;SDS011;3283;52.330;9.772;2023-11-22T09:25:19;535.40;;;127.03;;
6499;SDS011;3283;52.330;9.772;2023-11-22T09:27:48;521.60;;;113.00;;
6499;SDS011;3283;52.330;9.772;2023-11-22T09:30:18;529.37;;;121.10;;
6499;SDS011;3283;52.330;9.772;2023-11-22T09:35:26;535.67;;;125.10;;
6499;SDS011;3283;52.330;9.772;2023-11-22T09:37:55;531.57;;;120.77;;
6499;SDS011;3283;52.330;9.772;2023-11-22T09:40:21;526.17;;;115.23;;
6499;SDS011;3283;52.330;9.772;2023-11-22T09:42:47;534.33;;;128.27;;
6499;SDS011;3283;52.330;9.772;2023-11-22T09:45:16;528.00;;;120.27;;
6499;SDS011;3283;52.330;9.772;2023-11-22T09:47:45;537.17;;;126.00;;
6499;SDS011;3283;52.330;9.772;2023-11-22T09:50:16;532.77;;;125.43;;
6499;SDS011;3283;52.330;9.772;2023-11-22T09:52:45;530.53;;;117.73;;
6499;SDS011;3283;52.330;9.772;2023-11-22T09:55:15;529.10;;;115.60;;
6499;SDS011;3283;52.330;9.772;2023-11-22T09:57:40;535.23;;;126.30;;
6499;SDS011;3283;52.330;9.772;2023-11-22T10:00:07;536.40;;;127.13;;
6499;SDS011;3283;52.330;9.772;2023-11-22T10:02:39;532.50;;;120.73;;
6499;SDS011;3283;52.330;9.772;2023-11-22T10:05:06;535.87;;;124.47;;
6499;SDS011;3283;52.330;9.772;2023-11-22T10:07:33;538.30;;;131.93;;
6499;SDS011;3283;52.330;9.772;2023-11-22T10:10:00;535.20;;;119.00;;
6499;SDS011;3283;52.330;9.772;2023-11-22T10:12:30;535.70;;;127.07;;
6499;SDS011;3283;52.330;9.772;2023-11-22T10:14:55;534.10;;;122.67;;
6499;SDS011;3283;52.330;9.772;2023-11-22T10:17:32;536.10;;;127.87;;
6499;SDS011;3283;52.330;9.772;2023-11-22T10:19:58;529.23;;;119.77;;
6499;SDS011;3283;52.330;9.772;2023-11-22T10:22:23;539.90;;;130.73;;
6499;SDS011;3283;52.330;9.772;2023-11-22T10:24:48;535.17;;;123.07;;
6499;SDS011;3283;52.330;9.772;2023-11-22T10:27:14;537.83;;;124.67;;
6499;SDS011;3283;52.330;9.772;2023-11-22T10:29:41;538.13;;;129.43;;
6499;SDS011;3283;52.330;9.772;2023-11-22T10:32:12;540.50;;;130.30;;
6499;SDS011;3283;52.330;9.772;2023-11-22T10:34:38;544.93;;;133.73;;
6499;SDS011;3283;52.330;9.772;2023-11-22T10:37:04;546.27;;;138.80;;
6499;SDS011;3283;52.330;9.772;2023-11-22T10:39:29;537.60;;;126.17;;
6499;SDS011;3283;52.330;9.772;2023-11-22T10:41:55;544.67;;;137.20;;
6499;SDS011;3283;52.330;9.772;2023-11-22T10:44:22;539.43;;;126.50;;
6499;SDS011;3283;52.330;9.772;2023-11-22T10:46:47;543.23;;;133.27;;
6499;SDS011;3283;52.330;9.772;2023-11-22T10:49:14;541.37;;;129.10;;
6499;SDS011;3283;52.330;9.772;2023-11-22T10:51:39;545.60;;;136.60;;
6499;SDS011;3283;52.330;9.772;2023-11-22T10:54:08;540.13;;;126.07;;
6499;SDS011;3283;52.330;9.772;2023-11-22T10:56:38;543.47;;;131.27;;
6499;SDS011;3283;52.330;9.772;2023-11-22T10:59:10;538.87;;;127.93;;
6499;SDS011;3283;52.330;9.772;2023-11-22T11:01:39;543.27;;;131.73;;
6499;SDS011;3283;52.330;9.772;2023-11-22T11:04:23;549.03;;;142.03;;
6499;SDS011;3283;52.330;9.772;2023-11-22T11:06:53;545.27;;;141.20;;
6499;SDS011;3283;52.330;9.772;2023-11-22T11:09:22;538.77;;;127.20;;
6499;SDS011;3283;52.330;9.772;2023-11-22T11:11:53;544.47;;;133.60;;
6499;SDS011;3283;52.330;9.772;2023-11-22T11:14:19;542.27;;;126.83;;
6499;SDS011;3283;52.330;9.772;2023-11-22T11:16:44;545.93;;;132.10;;
6499;SDS011;3283;52.330;9.772;2023-11-22T11:19:15;535.70;;;126.90;;
6499;SDS011;3283;52.330;9.772;2023-11-22T11:21:46;534.57;;;121.83;;
6499;SDS011;3283;52.330;9.772;2023-11-22T11:24:12;540.43;;;128.70;;
6499;SDS011;3283;52.330;9.772;2023-11-22T11:26:39;540.90;;;131.53;;
6499;SDS011;3283;52.330;9.772;2023-11-22T11:29:04;547.93;;;140.43;;
6499;SDS011;3283;52.330;9.772;2023-11-22T11:31:32;543.50;;;133.77;;
6499;SDS011;3283;52.330;9.772;2023-11-22T11:34:02;545.60;;;137.27;;
6499;SDS011;3283;52.330;9.772;2023-11-22T11:36:31;540.50;;;127.20;;
6499;SDS011;3283;52.330;9.772;2023-11-22T11:39:01;541.90;;;128.20;;
6499;SDS011;3283;52.330;9.772;2023-11-22T11:41:29;541.50;;;134.13;;
6499;SDS011;3283;52.330;9.772;2023-11-22T11:43:57;541.97;;;131.10;;
6499;SDS011;3283;52.330;9.772;2023-11-22T11:46:24;545.40;;;134.43;;
6499;SDS011;3283;52.330;9.772;2023-11-22T11:48:52;539.17;;;129.67;;
6499;SDS011;3283;52.330;9.772;2023-11-22T11:51:22;543.60;;;134.13;;
6499;SDS011;3283;52.330;9.772;2023-11-22T11:53:55;543.97;;;136.33;;
6499;SDS011;3283;52.330;9.772;2023-11-22T11:56:21;546.40;;;141.00;;
6499;SDS011;3283;52.330;9.772;2023-11-22T11:58:48;540.50;;;129.30;;
6499;SDS011;3283;52.330;9.772;2023-11-22T12:01:15;553.80;;;143.87;;
6499;SDS011;3283;52.330;9.772;2023-11-22T12:03:42;557.97;;;142.90;;
6499;SDS011;3283;52.330;9.772;2023-11-22T12:06:13;539.63;;;128.63;;
6499;SDS011;3283;52.330;9.772;2023-11-22T12:08:43;548.60;;;139.30;;
6499;SDS011;3283;52.330;9.772;2023-11-22T12:11:09;537.47;;;122.67;;
6499;SDS011;3283;52.330;9.772;2023-11-22T12:13:35;547.13;;;138.67;;
6499;SDS011;3283;52.330;9.772;2023-11-22T12:16:04;538.07;;;124.27;;
6499;SDS011;3283;52.330;9.772;2023-11-22T12:18:39;540.60;;;130.57;;
6499;SDS011;3283;52.330;9.772;2023-11-22T12:21:06;544.07;;;135.27;;
6499;SDS011;3283;52.330;9.772;2023-11-22T12:23:32;541.30;;;132.37;;
6499;SDS011;3283;52.330;9.772;2023-11-22T12:25:58;537.17;;;127.73;;
6499;SDS011;3283;52.330;9.772;2023-11-22T12:28:26;538.40;;;128.80;;
6499;SDS011;3283;52.330;9.772;2023-11-22T12:30:52;543.57;;;132.07;;
6499;SDS011;3283;52.330;9.772;2023-11-22T12:33:18;554.73;;;148.67;;
6499;SDS011;3283;52.330;9.772;2023-11-22T12:35:44;548.83;;;134.47;;
6499;SDS011;3283;52.330;9.772;2023-11-22T12:38:14;549.30;;;134.70;;
6499;SDS011;3283;52.330;9.772;2023-11-22T12:40:45;551.20;;;143.93;;
6499;SDS011;3283;52.330;9.772;2023-11-22T12:43:12;539.53;;;127.23;;
6499;SDS011;3283;52.330;9.772;2023-11-22T12:45:39;542.67;;;131.80;;
6499;SDS011;3283;52.330;9.772;2023-11-22T12:48:21;542.80;;;132.40;;
6499;SDS011;3283;52.330;9.772;2023-11-22T12:50:51;541.23;;;130.13;;
6499;SDS011;3283;52.330;9.772;2023-11-22T12:53:18;538.43;;;127.20;;
6499;SDS011;3283;52.330;9.772;2023-11-22T12:55:47;535.40;;;120.57;;
6499;SDS011;3283;52.330;9.772;2023-11-22T12:58:17;542.07;;;128.83;;
6499;SDS011;3283;52.330;9.772;2023-11-22T13:00:48;544.23;;;129.00;;
6499;SDS011;3283;52.330;9.772;2023-11-22T13:03:15;536.00;;;120.40;;
6499;SDS011;3283;52.330;9.772;2023-11-22T13:05:42;543.13;;;136.33;;
6499;SDS011;3283;52.330;9.772;2023-11-22T13:08:09;544.00;;;130.33;;
6499;SDS011;3283;52.330;9.772;2023-11-22T13:10:59;538.07;;;127.33;;
6499;SDS011;3283;52.330;9.772;2023-11-22T13:13:25;543.27;;;128.40;;
6499;SDS011;3283;52.330;9.772;2023-11-22T13:15:52;541.73;;;126.57;;
6499;SDS011;3283;52.330;9.772;2023-11-22T13:18:18;536.27;;;121.13;;
6499;SDS011;3283;52.330;9.772;2023-11-22T13:20:44;538.17;;;120.13;;
6499;SDS011;3283;52.330;9.772;2023-11-22T13:23:10;541.27;;;126.73;;
6499;SDS011;3283;52.330;9.772;2023-11-22T13:25:36;532.80;;;120.87;;
6499;SDS011;3283;52.330;9.772;2023-11-22T13:28:02;534.57;;;123.97;;
6499;SDS011;3283;52.330;9.772;2023-11-22T13:30:29;541.50;;;126.47;;
6499;SDS011;3283;52.330;9.772;2023-11-22T13:32:55;538.67;;;124.63;;
6499;SDS011;3283;52.330;9.772;2023-11-22T13:35:26;538.63;;;125.63;;
6499;SDS011;3283;52.330;9.772;2023-11-22T13:37:56;550.33;;;136.10;;
6499;SDS011;3283;52.330;9.772;2023-11-22T13:40:23;544.13;;;132.33;;
6499;SDS011;3283;52.330;9.772;2023-11-22T13:42:51;535.80;;;124.00;;
6499;SDS011;3283;52.330;9.772;2023-11-22T13:45:19;539.00;;;123.70;;
6499;SDS011;3283;52.330;9.772;2023-11-22T13:47:55;540.87;;;124.77;;
6499;SDS011;3283;52.330;9.772;2023-11-22T13:50:25;539.63;;;124.30;;
6499;SDS011;3283;52.330;9.772;2023-11-22T13:52:52;543.67;;;130.73;;
6499;SDS011;3283;52.330;9.772;2023-11-22T13:55:18;542.17;;;130.00;;
6499;SDS011;3283;52.330;9.772;2023-11-22T14:00:23;536.73;;;125.07;;
6499;SDS011;3283;52.330;9.772;2023-11-22T14:02:57;535.10;;;120.63;;
6499;SDS011;3283;52.330;9.772;2023-11-22T14:05:29;543.40;;;134.23;;
6499;SDS011;3283;52.330;9.772;2023-11-22T14:07:55;537.90;;;122.70;;
6499;SDS011;3283;52.330;9.772;2023-11-22T14:10:21;535.20;;;120.60;;
6499;SDS011;3283;52.330;9.772;2023-11-22T14:12:50;537.20;;;124.07;;
6499;SDS011;3283;52.330;9.772;2023-11-22T14:15:16;544.90;;;128.33;;
6499;SDS011;3283;52.330;9.772;2023-11-22T14:17:42;539.20;;;120.93;;
6499;SDS011;3283;52.330;9.772;2023-11-22T14:20:08;542.97;;;132.70;;
6499;SDS011;3283;52.330;9.772;2023-11-22T14:22:37;533.00;;;116.70;;
6499;SDS011;3283;52.330;9.772;2023-11-22T14:25:09;555.13;;;137.43;;
6499;SDS011;3283;52.330;9.772;2023-11-22T14:27:41;535.63;;;115.73;;
6499;SDS011;3283;52.330;9.772;2023-11-22T14:30:07;534.10;;;117.90;;
6499;SDS011;3283;52.330;9.772;2023-11-22T14:32:35;538.40;;;120.83;;
6499;SDS011;3283;52.330;9.772;2023-11-22T14:35:02;540.77;;;126.00;;
6499;SDS011;3283;52.330;9.772;2023-11-22T14:37:28;530.77;;;114.03;;
6499;SDS011;3283;52.330;9.772;2023-11-22T14:39:54;534.47;;;119.17;;
6499;SDS011;3283;52.330;9.772;2023-11-22T14:42:19;546.30;;;134.80;;
6499;SDS011;3283;52.330;9.772;2023-11-22T14:48:13;537.70;;;124.90;;
6499;SDS011;3283;52.330;9.772;2023-11-22T14:50:39;530.67;;;117.43;;
